Time;durP1;ratioP1;P1;durP2;ratioP2;P2;SDS_P1;SDS_P2;PMS_P1;PMS_P2;Temp;Humidity;BMP_temperature;BMP_pressure;BME280_temperature;BME280_humidity;BME280_pressure;Samples;Min_cycle;Max_cycle;Signal;HPM_P1;HPM_P2
2021/10/18 16:53:11;;;;;;;29.58;15.65;;;;;;;19.29;57.65;95514.66;5055454;28;20429;-32
2021/10/18 16:55:37;;;;;;;23.27;13.80;;;;;;;19.37;56.13;95515.47;5051014;28;20040;-29
2021/10/18 16:58:03;;;;;;;22.92;13.40;;;;;;;19.33;56.17;95524.69;5047036;28;20037;-27
2021/10/18 17:00:28;;;;;;;21.60;12.52;;;;;;;19.43;55.96;95525.34;5053592;28;20025;-26
2021/10/18 17:02:55;;;;;;;22.67;11.93;;;;;;;19.50;56.59;95522.03;5047590;28;20471;-26
2021/10/18 17:05:21;;;;;;;20.50;11.77;;;;;;;19.60;57.84;95528.81;5045883;28;20061;-25
2021/10/18 17:07:46;;;;;;;20.40;12.27;;;;;;;19.66;57.56;95526.53;5047668;28;20033;-26
2021/10/18 17:10:12;;;;;;;19.20;11.07;;;;;;;19.71;56.62;95524.22;5046300;28;20030;-27
2021/10/18 17:12:37;;;;;;;17.70;11.38;;;;;;;19.77;56.97;95532.28;5049204;28;20048;-27
2021/10/18 17:15:03;;;;;;;23.17;11.63;;;;;;;19.85;56.70;95532.28;5050625;28;20505;-24
2021/10/18 17:17:29;;;;;;;17.90;10.15;;;;;;;19.94;56.46;95537.53;5052320;28;20036;-26
2021/10/18 17:19:59;;;;;;;18.35;10.40;;;;;;;19.98;56.11;95539.69;5048291;28;20013;-25
2021/10/18 17:22:25;;;;;;;16.35;9.90;;;;;;;20.07;55.93;95537.84;5040813;28;20071;-25
2021/10/18 17:24:50;;;;;;;20.02;11.02;;;;;;;20.15;55.72;95544.94;5047399;28;20498;-29
2021/10/18 17:27:15;;;;;;;17.77;10.02;;;;;;;20.20;55.15;95539.97;5060289;28;20322;-25
2021/10/18 17:29:41;;;;;;;18.92;10.55;;;;;;;20.25;54.95;95542.91;5066190;28;20025;-27
2021/10/18 17:32:07;;;;;;;16.65;10.15;;;;;;;20.28;54.77;95547.84;5056215;28;20041;-26
2021/10/18 17:34:36;;;;;;;17.42;10.18;;;;;;;20.30;54.38;95548.50;5050518;28;20079;-27
2021/10/18 17:37:01;;;;;;;17.13;9.63;;;;;;;20.33;54.04;95550.78;5053779;28;20045;-25
2021/10/18 17:39:27;;;;;;;16.02;9.68;;;;;;;20.36;54.07;95553.09;5046985;28;20499;-27
2021/10/18 17:41:52;;;;;;;16.35;9.25;;;;;;;20.36;53.99;95549.63;5047018;28;20036;-26
2021/10/18 17:48:10;;;;;;;30.42;26.80;;;;;;;18.49;47.28;95557.19;5054448;28;20392;-81
2021/10/18 17:50:35;;;;;;;17.85;14.82;;;;;;;17.13;49.34;95564.56;5064775;28;20035;-78
2021/10/18 17:53:01;;;;;;;14.25;11.20;;;;;;;16.07;51.82;95553.63;5051476;28;20040;-78
2021/10/18 17:55:26;;;;;;;11.88;10.43;;;;;;;15.21;54.44;95563.22;5061543;28;20029;-77
2021/10/18 17:57:52;;;;;;;11.20;8.95;;;;;;;14.58;56.14;95566.13;5051807;28;20032;-78
2021/10/18 18:00:17;;;;;;;11.40;8.50;;;;;;;14.03;57.58;95568.22;5080434;28;20020;-78
2021/10/18 18:02:43;;;;;;;12.80;9.68;;;;;;;13.62;59.53;95575.09;5046954;28;20077;-79
2021/10/18 18:05:08;;;;;;;12.98;9.48;;;;;;;13.16;60.30;95568.44;5036740;28;20033;-81
2021/10/18 18:07:34;;;;;;;14.48;10.88;;;;;;;12.94;61.62;95579.75;5045682;28;20044;-81
2021/10/18 18:09:59;;;;;;;13.93;11.02;;;;;;;12.64;62.70;95577.81;5054045;28;20044;-81
2021/10/18 18:12:24;;;;;;;13.93;10.55;;;;;;;12.43;63.24;95588.97;5044777;28;20522;-79
2021/10/18 18:14:50;;;;;;;12.75;9.15;;;;;;;12.19;64.58;95577.84;5032038;28;20033;-80
2021/10/18 18:17:15;;;;;;;17.20;11.80;;;;;;;12.03;64.92;95584.22;5066505;28;20102;-78
2021/10/18 18:19:43;;;;;;;12.90;9.80;;;;;;;11.88;65.31;95589.78;5050220;28;20456;-79
2021/10/18 18:22:08;;;;;;;12.27;10.23;;;;;;;11.76;65.95;95587.13;5066540;28;20509;-79
2021/10/18 18:24:34;;;;;;;13.43;10.90;;;;;;;11.67;65.99;95581.75;5048415;28;20033;-77
2021/10/18 18:27:00;;;;;;;14.45;11.40;;;;;;;11.59;66.27;95593.59;5066078;28;20045;-80
2021/10/18 18:29:25;;;;;;;13.30;9.73;;;;;;;11.50;66.53;95590.84;5061897;28;20032;-80
2021/10/18 18:31:53;;;;;;;15.25;10.80;;;;;;;11.42;66.09;95588.78;5049051;28;20043;-78
2021/10/18 18:34:20;;;;;;;14.20;10.68;;;;;;;11.37;67.00;95598.72;5048482;28;20024;-80
2021/10/18 18:36:45;;;;;;;17.58;12.40;;;;;;;11.26;67.49;95599.50;5046357;28;20029;-78
2021/10/18 18:39:11;;;;;;;15.70;12.10;;;;;;;11.23;67.62;95604.09;5035151;28;20044;-84
2021/10/18 18:41:36;;;;;;;16.65;10.48;;;;;;;11.22;67.87;95611.06;5048997;28;20383;-78
2021/10/18 18:44:02;;;;;;;14.00;10.10;;;;;;;11.19;68.53;95609.50;5047500;28;20033;-81
2021/10/18 18:46:27;;;;;;;15.60;12.45;;;;;;;11.12;68.73;95615.28;5057330;28;20053;-78
2021/10/18 18:48:53;;;;;;;15.43;12.65;;;;;;;11.10;67.98;95625.78;5060914;28;20403;-83
2021/10/18 18:51:19;;;;;;;12.35;9.82;;;;;;;11.15;69.03;95615.88;5039322;28;20471;-82
2021/10/18 18:53:47;;;;;;;17.67;11.90;;;;;;;11.07;68.18;95613.00;5049558;28;20059;-82
2021/10/18 18:56:13;;;;;;;17.95;13.15;;;;;;;11.05;68.33;95620.09;5028981;28;20049;-81
2021/10/18 18:58:38;;;;;;;16.23;13.43;;;;;;;11.08;68.06;95625.06;5043192;28;20100;-73
2021/10/18 19:01:04;;;;;;;17.77;14.75;;;;;;;11.02;68.10;95624.69;5041585;28;20041;-72
2021/10/18 19:03:29;;;;;;;18.13;13.63;;;;;;;11.02;68.15;95617.72;5036170;28;20026;-72
2021/10/18 19:05:55;;;;;;;17.90;13.98;;;;;;;11.01;68.25;95634.25;5041456;28;20033;-72
2021/10/18 19:08:23;;;;;;;16.90;12.65;;;;;;;10.90;68.25;95619.41;5023040;28;20028;-75
2021/10/18 19:10:50;;;;;;;15.27;12.15;;;;;;;10.98;68.70;95641.44;5032020;28;20048;-77
2021/10/18 19:13:16;;;;;;;16.38;12.93;;;;;;;10.99;68.09;95643.09;5037265;28;20422;-74
2021/10/18 19:15:42;;;;;;;16.15;12.35;;;;;;;10.95;68.79;95645.09;5010447;28;20434;-75
2021/10/18 19:18:08;;;;;;;19.65;13.63;;;;;;;11.01;66.71;95636.84;5047292;28;20037;-76
2021/10/18 19:20:33;;;;;;;16.15;13.15;;;;;;;11.01;67.47;95638.63;5018697;28;20031;-75
2021/10/18 19:22:59;;;;;;;19.73;12.98;;;;;;;10.87;67.74;95631.81;5030486;28;20038;-75
2021/10/18 19:25:24;;;;;;;18.92;13.43;;;;;;;11.01;66.86;95646.44;5048160;28;20025;-75
2021/10/18 19:27:50;;;;;;;18.63;11.23;;;;;;;11.09;67.13;95663.16;5041356;28;20103;-78
2021/10/18 19:30:16;;;;;;;15.90;11.90;;;;;;;11.08;67.18;95669.25;5037608;28;20029;-78
2021/10/18 19:32:42;;;;;;;17.10;12.57;;;;;;;11.09;67.51;95670.13;5011287;28;20041;-78
2021/10/18 19:51:26;;;;;;;19.95;15.73;;;;;;;11.70;64.00;95676.09;5147417;27;20376;-73
2021/10/18 19:53:52;;;;;;;16.08;12.25;;;;;;;11.69;64.18;95686.59;5148872;27;20050;-73
2021/10/18 19:56:18;;;;;;;17.88;12.82;;;;;;;11.45;64.61;95677.03;5135904;27;20035;-77
2021/10/18 19:58:44;;;;;;;16.45;12.38;;;;;;;11.54;65.50;95688.56;5142028;27;20025;-77
2021/10/18 20:01:09;;;;;;;16.98;13.82;;;;;;;11.43;65.09;95684.13;5145827;27;20019;-74
2021/10/18 20:03:37;;;;;;;15.93;13.18;;;;;;;11.43;65.14;95689.31;5130582;27;20033;-77
2021/10/18 20:06:02;;;;;;;18.08;13.15;;;;;;;11.38;65.06;95686.22;5148137;27;20037;-78
2021/10/18 20:08:27;;;;;;;15.82;12.90;;;;;;;11.37;65.12;95698.41;5137742;27;20023;-77
2021/10/18 20:10:53;;;;;;;17.05;13.55;;;;;;;11.34;65.99;95703.00;5133715;27;20487;-76
2021/10/18 20:13:18;;;;;;;20.08;14.75;;;;;;;11.29;66.20;95707.69;5148873;27;20026;-77
2021/10/18 20:15:44;;;;;;;17.17;13.70;;;;;;;11.22;66.06;95690.84;5140368;27;20106;-77
2021/10/18 20:18:09;;;;;;;16.75;13.10;;;;;;;11.26;66.05;95713.13;5126995;27;20031;-77
2021/10/18 20:20:35;;;;;;;15.45;10.63;;;;;;;11.13;66.52;95693.19;5142301;27;20035;-77
2021/10/18 20:23:00;;;;;;;16.73;13.32;;;;;;;11.23;66.73;95708.97;5132408;27;20027;-77
2021/10/18 20:25:25;;;;;;;16.83;13.63;;;;;;;11.21;66.64;95716.03;5123916;27;20034;-77
2021/10/18 20:27:51;;;;;;;17.55;13.30;;;;;;;11.19;66.39;95718.75;5140026;27;20042;-77
2021/10/18 20:30:16;;;;;;;18.95;13.48;;;;;;;11.10;66.40;95708.16;5119300;27;20104;-77
2021/10/18 20:32:46;;;;;;;17.25;12.00;;;;;;;11.17;66.44;95715.44;5139581;27;20507;-77
2021/10/18 20:35:12;;;;;;;16.50;13.02;;;;;;;11.13;66.33;95708.78;5144665;27;20156;-77
2021/10/18 20:37:37;;;;;;;16.25;12.00;;;;;;;11.14;67.02;95731.25;5110145;28;20039;-77
2021/10/18 20:40:03;;;;;;;15.95;11.52;;;;;;;11.07;67.87;95717.03;5113344;27;20407;-77
2021/10/18 20:42:29;;;;;;;17.48;12.93;;;;;;;11.08;66.74;95712.63;5121565;27;20035;-77
2021/10/18 20:44:55;;;;;;;18.63;13.73;;;;;;;11.04;66.82;95722.44;5112106;27;20035;-77
2021/10/18 20:47:20;;;;;;;19.15;12.93;;;;;;;11.04;67.21;95719.84;5115250;27;20019;-77
2021/10/18 20:49:46;;;;;;;16.35;12.38;;;;;;;11.07;66.91;95729.19;5118959;28;20104;-76
2021/10/18 20:52:15;;;;;;;17.88;13.93;;;;;;;11.00;66.62;95713.16;5131690;27;20026;-75
2021/10/18 20:54:41;;;;;;;16.67;13.10;;;;;;;11.05;66.74;95725.84;5096434;28;20288;-77
2021/10/18 20:57:06;;;;;;;16.65;12.20;;;;;;;11.03;67.27;95728.59;5134191;27;20458;-77
2021/10/18 20:59:32;;;;;;;16.92;13.90;;;;;;;11.00;66.70;95720.16;5116043;27;20401;-76
2021/10/18 21:01:58;;;;;;;15.57;13.02;;;;;;;10.96;67.06;95719.53;5114848;27;20031;-78
2021/10/18 21:04:25;;;;;;;16.15;13.57;;;;;;;11.02;66.76;95726.91;5127469;27;20081;-77
2021/10/18 21:06:50;;;;;;;18.08;12.73;;;;;;;10.95;67.56;95738.69;5135207;27;20119;-77
2021/10/18 21:09:16;;;;;;;15.82;13.23;;;;;;;10.85;65.68;95732.47;5122632;27;20493;-77
2021/10/18 21:11:41;;;;;;;16.85;12.40;;;;;;;10.87;65.17;95728.00;5114899;27;20042;-77
2021/10/18 21:14:07;;;;;;;16.65;13.10;;;;;;;10.88;64.34;95745.25;5114449;27;20583;-77
2021/10/18 21:16:32;;;;;;;16.05;12.35;;;;;;;10.87;63.46;95746.19;5117342;27;20377;-77
2021/10/18 21:18:57;;;;;;;18.23;13.40;;;;;;;10.87;63.25;95736.63;5103565;28;20035;-77
2021/10/18 21:21:23;;;;;;;14.40;11.20;;;;;;;10.91;63.21;95745.03;5113091;28;20413;-77
2021/10/18 21:23:48;;;;;;;15.52;12.25;;;;;;;10.87;63.47;95743.59;5115861;27;20027;-76
2021/10/18 21:26:20;;;;;;;18.80;13.77;;;;;;;10.84;62.66;95736.00;5116109;27;20092;-78
2021/10/18 21:28:46;;;;;;;15.98;13.15;;;;;;;10.90;62.94;95745.97;5114490;27;20031;-76
2021/10/18 21:31:12;;;;;;;20.30;13.95;;;;;;;10.89;61.92;95746.88;5105653;28;20031;-76
2021/10/18 21:33:38;;;;;;;17.85;13.52;;;;;;;10.91;61.60;95755.41;5122683;27;20033;-76
2021/10/18 21:36:03;;;;;;;14.40;11.65;;;;;;;10.86;61.94;95747.09;5122952;27;20019;-78
2021/10/18 21:38:29;;;;;;;15.63;13.13;;;;;;;10.89;61.61;95745.16;5112783;27;20028;-78
2021/10/18 21:40:54;;;;;;;15.93;12.75;;;;;;;10.95;61.17;95756.88;5112800;28;20036;-77
2021/10/18 21:43:20;;;;;;;14.48;12.02;;;;;;;10.90;60.62;95751.16;5114089;27;20031;-77
2021/10/18 21:45:45;;;;;;;16.73;13.55;;;;;;;10.87;60.85;95752.22;5131621;27;20040;-78
2021/10/18 21:48:11;;;;;;;16.65;13.13;;;;;;;10.84;60.83;95751.59;5102332;28;20054;-78
2021/10/18 21:50:36;;;;;;;18.10;14.40;;;;;;;10.83;60.29;95763.75;5128258;27;20432;-76
2021/10/18 21:53:02;;;;;;;16.33;12.60;;;;;;;10.81;60.09;95760.44;5125533;27;20056;-78
2021/10/18 21:55:27;;;;;;;16.63;14.48;;;;;;;10.79;59.39;95753.69;5132678;27;20031;-76
2021/10/18 21:57:53;;;;;;;18.20;14.38;;;;;;;10.78;59.28;95749.41;5115810;27;20031;-75
2021/10/18 22:00:32;;;;;;;20.02;14.88;;;;;;;10.71;59.70;95747.22;5132911;27;20508;-75
2021/10/18 22:02:58;;;;;;;17.48;12.57;;;;;;;10.78;59.67;95752.00;5114853;27;20027;-78
2021/10/18 22:05:23;;;;;;;16.50;13.18;;;;;;;10.76;60.07;95751.28;5134157;27;20084;-77
2021/10/18 22:07:48;;;;;;;15.27;13.10;;;;;;;10.78;60.07;95757.19;5132910;27;20027;-75
2021/10/18 22:10:14;;;;;;;16.55;13.50;;;;;;;10.76;60.79;95744.31;5134274;27;20031;-75
2021/10/18 22:12:39;;;;;;;16.20;13.20;;;;;;;10.68;60.84;95739.66;5133941;27;20027;-75
2021/10/18 22:15:05;;;;;;;15.10;13.18;;;;;;;10.78;61.66;95752.00;5133398;27;20023;-77
2021/10/18 22:17:30;;;;;;;16.58;13.55;;;;;;;10.68;61.49;95739.66;5115363;27;20027;-77
2021/10/18 22:19:56;;;;;;;17.42;13.98;;;;;;;10.72;60.75;95748.06;5115212;27;20488;-77
2021/10/18 22:22:21;;;;;;;15.80;12.45;;;;;;;10.68;61.24;95744.84;5133728;27;20484;-77
2021/10/18 22:24:47;;;;;;;16.38;13.45;;;;;;;10.67;62.09;95732.78;5111759;27;20520;-77
2021/10/18 22:27:12;;;;;;;15.20;12.95;;;;;;;10.67;62.13;95742.34;5113100;28;20155;-77
2021/10/18 22:29:38;;;;;;;13.25;11.07;;;;;;;10.64;61.83;95733.00;5111886;28;20028;-77
2021/10/18 22:32:03;;;;;;;18.02;12.55;;;;;;;10.62;61.94;95736.66;5112973;28;20480;-78
2021/10/18 22:34:29;;;;;;;18.60;14.20;;;;;;;10.55;62.04;95741.41;5111499;28;20315;-77
2021/10/18 22:36:54;;;;;;;17.77;14.25;;;;;;;10.57;62.18;95744.75;5095122;28;20098;-77
2021/10/18 22:39:20;;;;;;;18.25;12.80;;;;;;;10.54;62.66;95737.16;5111619;28;20488;-77
2021/10/18 22:41:45;;;;;;;18.55;12.50;;;;;;;10.49;63.03;95736.63;5111645;28;20031;-78
2021/10/18 22:44:11;;;;;;;18.42;15.30;;;;;;;10.38;62.35;95731.34;5111078;28;20081;-77
2021/10/18 22:46:36;;;;;;;18.90;14.95;;;;;;;10.34;63.19;95732.50;5112771;28;20024;-77
2021/10/18 22:49:02;;;;;;;19.27;13.88;;;;;;;10.34;63.39;95740.28;5111208;28;20046;-77
2021/10/18 22:51:27;;;;;;;17.70;13.93;;;;;;;10.17;63.33;95729.22;5094469;28;20023;-77
2021/10/18 22:53:53;;;;;;;17.00;13.95;;;;;;;10.16;64.05;95742.28;5093901;28;20047;-78
2021/10/18 22:56:19;;;;;;;16.83;13.40;;;;;;;10.06;63.52;95745.50;5127471;27;20307;-78
2021/10/18 22:58:45;;;;;;;17.42;14.27;;;;;;;9.96;63.59;95741.84;5132869;27;20114;-77
2021/10/18 23:01:10;;;;;;;17.17;13.32;;;;;;;9.79;64.36;95729.97;5132852;27;20098;-77
2021/10/18 23:03:36;;;;;;;17.13;14.00;;;;;;;9.73;64.13;95730.38;5132579;27;20019;-77
2021/10/18 23:27:55;;;;;;;16.45;14.02;;;;;;;9.28;64.32;95747.94;5150286;27;20403;-77
2021/10/18 23:30:20;;;;;;;15.50;13.25;;;;;;;9.17;64.38;95758.16;5149841;27;20503;-77
2021/10/18 23:32:45;;;;;;;16.30;13.70;;;;;;;8.89;64.71;95754.69;5129734;28;20020;-77
2021/10/18 23:35:11;;;;;;;17.30;13.25;;;;;;;8.73;65.06;95749.59;5115655;27;20412;-77
2021/10/18 23:37:37;;;;;;;16.02;12.98;;;;;;;8.69;64.69;95757.63;5124808;28;20052;-77
2021/10/18 23:40:04;;;;;;;19.67;13.52;;;;;;;8.57;65.27;95748.03;5131256;27;20054;-77
2021/10/18 23:42:29;;;;;;;17.67;13.35;;;;;;;8.55;65.91;95770.59;5145300;27;20138;-77
2021/10/18 23:44:54;;;;;;;18.17;14.13;;;;;;;8.45;65.99;95763.38;5110411;28;20023;-77
2021/10/18 23:47:20;;;;;;;16.33;13.25;;;;;;;8.36;65.75;95770.81;5115762;27;20039;-76
2021/10/18 23:49:45;;;;;;;18.45;13.38;;;;;;;8.22;66.60;95774.22;5109473;28;20027;-77
2021/10/18 23:52:11;;;;;;;18.05;14.40;;;;;;;8.16;65.95;95769.38;5162659;27;20054;-77
2021/10/18 23:54:36;;;;;;;20.50;14.68;;;;;;;8.13;66.71;95777.31;5127740;28;20027;-77
2021/10/18 23:57:02;;;;;;;18.55;14.45;;;;;;;8.03;66.85;95759.75;5145197;27;20035;-77
2021/10/18 23:59:27;;;;;;;19.98;14.85;;;;;;;8.02;66.37;95758.09;5113850;28;20035;-77
